Terminal Aerodrome Forecast
Issued by NWS Greer, SC

Home | Current Version | Previous Version | Text Only | Print | Product List | Glossary On
Versions: 1 2 3 4 5 6 7 8 9 10 11 12 13 14 15 16 17 18 19 20 21 22 23 24 25 26 27 28 29 30 31 32 33 34 35 36
000
FTUS42 KGSP 050806 AAA
TAFAVL
TAF AMD
KAVL 050806Z 0508/0606 00000KT P6SM SCT015
      TEMPO 0508/0512 5SM BR BKN015
     FM051200 00000KT P6SM BKN025
     FM051500 16004KT P6SM BKN035 PROB30 0517/0521 4SM TSRA BKN025CB
     FM052100 17006KT P6SM BKN045 PROB30 0521/0601 4SM TSRA BKN040CB
     FM060100 00000KT P6SM BKN040=

USA.gov is the U.S. government's official web portal to all federal, state and local government web resources and services.